createdAt,value
2019-03-29T00:02:27.202Z,8.87
2019-03-29T00:05:07.304Z,8.83
2019-03-29T00:07:47.308Z,9.27
2019-03-29T00:10:27.425Z,7.43
2019-03-29T00:13:07.429Z,7.63
2019-03-29T00:15:47.519Z,6.30
2019-03-29T00:21:09.625Z,5.70
2019-03-29T00:23:49.529Z,4.90
2019-03-29T00:26:29.592Z,5.07
2019-03-29T00:29:09.566Z,4.87
2019-03-29T00:31:49.746Z,4.73
2019-03-29T00:34:29.905Z,4.40
2019-03-29T00:37:09.680Z,4.57
2019-03-29T00:39:49.659Z,4.33
2019-03-29T00:42:29.823Z,4.83
2019-03-29T00:45:09.707Z,4.97
2019-03-29T00:47:49.739Z,5.40
2019-03-29T00:50:17.916Z,4.80
2019-03-29T00:52:58.017Z,4.90
2019-03-29T00:55:37.698Z,4.93
2019-03-29T00:58:17.742Z,5.10
2019-03-29T01:00:58.000Z,5.13
2019-03-29T01:03:38.025Z,5.37
2019-03-29T01:06:18.045Z,6.00
2019-03-29T01:08:59.621Z,5.97
2019-03-29T01:14:21.737Z,7.20
2019-03-29T01:17:01.806Z,7.43
2019-03-29T01:19:41.830Z,7.17
2019-03-29T01:22:22.126Z,8.47
2019-03-29T01:25:02.751Z,7.97
2019-03-29T01:27:42.395Z,7.83
2019-03-29T01:30:23.045Z,7.20
2019-03-29T01:33:03.640Z,7.50
2019-03-29T01:35:44.149Z,7.70
2019-03-29T01:38:24.593Z,6.93
2019-03-29T01:41:05.105Z,6.67
2019-03-29T01:43:45.259Z,6.70
2019-03-29T01:46:25.629Z,7.07
2019-03-29T01:49:07.526Z,7.37
2019-03-29T01:51:47.987Z,7.37
2019-03-29T01:56:58.959Z,7.23
2019-03-29T01:59:46.294Z,7.53
2019-03-29T02:02:33.611Z,7.27
2019-03-29T02:05:13.510Z,7.80
2019-03-29T02:07:53.586Z,7.13
2019-03-29T02:10:33.730Z,8.13
2019-03-29T02:13:14.028Z,6.47
2019-03-29T02:15:54.098Z,7.57
2019-03-29T02:18:34.275Z,7.13
2019-03-29T02:21:15.033Z,7.37
2019-03-29T02:23:56.938Z,7.17
2019-03-29T02:26:37.514Z,6.83
2019-03-29T02:29:17.633Z,6.63
2019-03-29T02:31:57.615Z,5.70
2019-03-29T02:34:37.550Z,5.77
2019-03-29T02:37:17.425Z,6.67
2019-03-29T02:39:58.003Z,6.20
2019-03-29T02:42:37.730Z,6.30
2019-03-29T02:45:17.947Z,6.30
2019-03-29T02:47:57.942Z,6.47
2019-03-29T02:50:38.131Z,7.70
2019-03-29T02:53:18.535Z,7.73
2019-03-29T02:55:58.352Z,8.37
2019-03-29T02:58:38.454Z,8.43
2019-03-29T03:01:18.494Z,7.90
2019-03-29T03:03:58.523Z,7.50
2019-03-29T03:06:38.648Z,6.70
2019-03-29T03:09:18.605Z,6.23
2019-03-29T03:11:59.171Z,5.80
2019-03-29T03:14:38.868Z,5.63
2019-03-29T03:17:18.790Z,4.90
2019-03-29T03:19:58.786Z,4.97
2019-03-29T03:22:38.879Z,3.90
2019-03-29T03:25:19.191Z,3.50
2019-03-29T03:27:59.242Z,3.57
2019-03-29T03:30:39.091Z,3.57
2019-03-29T03:33:19.466Z,3.67
2019-03-29T03:35:47.590Z,4.70
2019-03-29T03:38:34.899Z,4.87
2019-03-29T03:41:15.114Z,4.30
2019-03-29T03:43:55.478Z,5.23
2019-03-29T03:46:35.567Z,5.17
2019-03-29T03:49:15.671Z,5.77
2019-03-29T03:51:56.186Z,5.33
2019-03-29T03:54:36.184Z,6.70
2019-03-29T03:57:16.088Z,7.30
2019-03-29T03:59:56.092Z,8.10
2019-03-29T04:02:36.457Z,8.90
2019-03-29T04:05:16.538Z,7.53
2019-03-29T04:07:56.658Z,8.17
2019-03-29T04:10:24.825Z,7.73
2019-03-29T04:16:05.439Z,8.37
2019-03-29T04:18:45.619Z,8.07
2019-03-29T04:21:26.414Z,8.23
2019-03-29T04:24:06.342Z,8.00
2019-03-29T04:26:46.358Z,8.40
2019-03-29T04:29:26.765Z,8.10
2019-03-29T04:32:06.834Z,7.83
2019-03-29T04:34:49.309Z,8.00
2019-03-29T04:37:29.078Z,7.97
2019-03-29T04:40:09.513Z,8.07
2019-03-29T04:42:49.727Z,8.40
2019-03-29T04:45:29.462Z,7.70
2019-03-29T04:48:09.506Z,8.40
2019-03-29T04:50:49.669Z,7.80
2019-03-29T04:53:30.061Z,8.17
2019-03-29T04:56:09.886Z,7.83
2019-03-29T04:58:50.035Z,7.73
2019-03-29T05:01:29.910Z,7.83
2019-03-29T05:04:10.226Z,7.83
2019-03-29T05:06:50.332Z,7.70
2019-03-29T05:09:30.182Z,7.10
2019-03-29T05:12:10.170Z,7.23
2019-03-29T05:14:50.502Z,9.30
2019-03-29T05:17:30.546Z,7.47
2019-03-29T05:20:10.729Z,7.97
2019-03-29T05:22:50.757Z,6.47
2019-03-29T05:25:30.814Z,6.23
2019-03-29T05:28:11.050Z,5.70
2019-03-29T05:30:52.755Z,6.40
2019-03-29T05:33:32.849Z,5.60
2019-03-29T05:36:14.328Z,5.13
2019-03-29T05:38:54.769Z,4.77
2019-03-29T05:41:35.057Z,3.63
2019-03-29T05:44:14.967Z,4.00
2019-03-29T05:46:55.227Z,3.80
2019-03-29T05:49:23.500Z,4.10
2019-03-29T05:52:10.805Z,4.20
2019-03-29T05:54:50.828Z,4.53
2019-03-29T05:57:30.927Z,3.90
2019-03-29T06:00:14.083Z,4.10
2019-03-29T06:08:51.734Z,4.80
2019-03-29T06:11:31.794Z,4.87
2019-03-29T06:14:12.933Z,4.77
2019-03-29T06:16:53.344Z,6.17
2019-03-29T06:19:21.583Z,7.43
2019-03-29T06:22:08.883Z,4.70
2019-03-29T06:24:48.741Z,4.37
2019-03-29T06:27:28.946Z,4.73
2019-03-29T06:30:09.205Z,5.33
2019-03-29T06:32:49.614Z,4.70
2019-03-29T06:35:29.657Z,5.50
2019-03-29T06:38:09.761Z,5.20
2019-03-29T06:43:48.394Z,5.30
2019-03-29T06:46:28.528Z,5.63
2019-03-29T06:49:09.183Z,5.27
2019-03-29T06:51:48.940Z,5.37
2019-03-29T06:54:28.761Z,6.40
2019-03-29T06:57:08.799Z,6.30
2019-03-29T06:59:49.213Z,6.40
2019-03-29T07:02:29.213Z,6.27
2019-03-29T07:05:11.461Z,6.43
2019-03-29T07:07:51.401Z,6.40
2019-03-29T07:10:31.473Z,6.60
2019-03-29T07:13:11.444Z,5.93
2019-03-29T07:15:51.602Z,6.30
2019-03-29T07:18:33.810Z,6.40
2019-03-29T07:21:21.376Z,6.57
2019-03-29T07:23:56.141Z,6.07
2019-03-29T07:26:36.178Z,7.00
2019-03-29T07:29:16.332Z,6.43
2019-03-29T07:31:57.025Z,7.43
2019-03-29T07:34:37.735Z,6.57
2019-03-29T07:37:18.109Z,7.17
2019-03-29T07:39:58.168Z,7.47
2019-03-29T07:42:38.351Z,7.73
2019-03-29T07:45:18.531Z,8.00
2019-03-29T07:47:58.341Z,8.40
2019-03-29T07:50:38.528Z,8.17
2019-03-29T07:53:18.569Z,8.07
2019-03-29T07:55:47.211Z,8.53
2019-03-29T07:58:34.478Z,8.03
2019-03-29T08:01:14.389Z,8.30
2019-03-29T08:03:54.452Z,7.90
2019-03-29T08:06:34.589Z,7.83
2019-03-29T08:09:22.178Z,8.40
2019-03-29T08:11:57.016Z,8.40
2019-03-29T08:14:37.112Z,8.27
2019-03-29T08:17:17.322Z,7.93
2019-03-29T08:20:35.950Z,7.63
2019-03-29T08:22:39.500Z,7.43
2019-03-29T08:25:19.723Z,7.77
2019-03-29T08:27:59.749Z,8.03
2019-03-29T08:30:39.935Z,7.57
2019-03-29T08:33:20.020Z,7.87
2019-03-29T08:36:00.063Z,7.00
2019-03-29T08:38:40.110Z,7.13
2019-03-29T08:41:20.674Z,6.60
2019-03-29T08:44:00.740Z,6.37
2019-03-29T08:46:40.909Z,5.63
2019-03-29T08:49:21.588Z,5.57
2019-03-29T08:52:01.497Z,5.63
2019-03-29T08:54:42.617Z,5.17
2019-03-29T08:57:22.318Z,5.47
2019-03-29T09:03:01.558Z,5.57
2019-03-29T09:05:41.810Z,5.40
2019-03-29T09:08:21.803Z,5.40
2019-03-29T09:11:01.771Z,5.20
2019-03-29T09:13:30.003Z,5.40
2019-03-29T09:15:58.139Z,6.00
2019-03-29T09:18:45.454Z,5.07
2019-03-29T09:21:32.752Z,6.00
2019-03-29T09:24:21.823Z,7.25
2019-03-29T09:26:54.551Z,7.37
2019-03-29T09:29:24.446Z,7.40
2019-03-29T09:35:05.493Z,7.20
2019-03-29T09:37:45.712Z,8.08
2019-03-29T09:40:25.956Z,7.20
2019-03-29T09:43:08.033Z,7.60
2019-03-29T09:45:48.041Z,7.87
2019-03-29T09:48:28.243Z,7.53
2019-03-29T09:50:56.489Z,6.87
2019-03-29T09:53:43.782Z,6.42
2019-03-29T09:56:37.493Z,6.72
2019-03-29T09:59:05.586Z,6.78
2019-03-29T10:01:45.722Z,5.87
2019-03-29T10:04:25.674Z,7.07
2019-03-29T10:07:05.901Z,7.17
2019-03-29T10:09:46.021Z,7.37
2019-03-29T10:12:27.296Z,8.08
2019-03-29T10:15:07.721Z,8.20
2019-03-29T10:17:47.460Z,7.80
2019-03-29T10:20:27.357Z,8.93
2019-03-29T10:23:07.393Z,8.65
2019-03-29T10:25:47.594Z,8.50
2019-03-29T10:28:28.003Z,8.40
2019-03-29T10:31:08.710Z,7.77
2019-03-29T10:33:49.305Z,7.90
2019-03-29T10:36:29.861Z,7.45
2019-03-29T10:39:09.930Z,7.53
2019-03-29T10:41:50.125Z,9.40
2019-03-29T10:44:30.187Z,9.25
2019-03-29T10:47:10.529Z,8.00
2019-03-29T10:49:50.741Z,8.13
2019-03-29T10:52:31.941Z,7.53
2019-03-29T10:58:24.882Z,7.72
2019-03-29T11:01:05.158Z,7.80
2019-03-29T11:03:45.483Z,7.42
2019-03-29T11:06:25.609Z,8.00
2019-03-29T11:09:05.822Z,7.85
2019-03-29T11:11:45.751Z,7.78
2019-03-29T11:14:26.298Z,8.25
2019-03-29T11:16:54.491Z,8.15
2019-03-29T11:19:41.892Z,8.58
2019-03-29T11:22:29.517Z,7.47
2019-03-29T11:25:13.092Z,7.60
2019-03-29T11:27:53.269Z,8.40
2019-03-29T11:30:42.011Z,8.05
2019-03-29T11:33:14.963Z,7.92
2019-03-29T11:35:55.138Z,7.75
2019-03-29T11:38:35.270Z,7.25
2019-03-29T11:41:15.455Z,7.35
2019-03-29T11:43:55.561Z,7.50
2019-03-29T11:46:35.739Z,7.65
2019-03-29T11:49:16.005Z,7.10
2019-03-29T11:51:56.223Z,7.67
2019-03-29T11:54:36.513Z,7.08
2019-03-29T11:57:16.585Z,7.12
2019-03-29T11:59:56.870Z,6.58
2019-03-29T12:02:36.966Z,6.72
2019-03-29T12:05:16.958Z,6.25
2019-03-29T12:07:57.402Z,6.30
2019-03-29T12:10:37.682Z,7.12
2019-03-29T12:13:17.326Z,6.78
2019-03-29T12:15:57.373Z,6.80
2019-03-29T12:18:37.621Z,7.10
2019-03-29T12:21:17.644Z,7.17
2019-03-29T12:23:57.585Z,6.85
2019-03-29T12:26:37.549Z,6.37
2019-03-29T12:29:17.926Z,6.50
2019-03-29T12:31:57.902Z,6.30
2019-03-29T12:34:38.526Z,6.05
2019-03-29T12:37:18.216Z,6.20
2019-03-29T12:39:58.416Z,6.30
2019-03-29T12:42:38.413Z,6.55
2019-03-29T12:45:18.710Z,6.25
2019-03-29T12:47:58.729Z,6.22
2019-03-29T12:50:26.997Z,5.60
2019-03-29T12:53:14.929Z,5.75
2019-03-29T12:56:02.230Z,5.90
2019-03-29T12:58:42.657Z,5.83
2019-03-29T13:01:22.396Z,5.47
2019-03-29T13:04:02.634Z,5.62
2019-03-29T13:06:42.594Z,5.33
2019-03-29T13:09:22.860Z,5.30
2019-03-29T13:12:02.837Z,4.72
2019-03-29T13:14:42.946Z,5.10
2019-03-29T13:17:23.302Z,5.75
2019-03-29T13:20:06.344Z,5.37
2019-03-29T13:22:46.398Z,6.37
2019-03-29T13:25:26.810Z,6.97
2019-03-29T13:28:06.700Z,8.08
2019-03-29T13:30:47.295Z,8.35
2019-03-29T13:33:26.994Z,8.53
2019-03-29T13:36:06.966Z,8.23
2019-03-29T13:38:49.903Z,8.08
2019-03-29T13:41:30.234Z,8.30
2019-03-29T13:44:23.145Z,8.88
2019-03-29T13:46:52.505Z,9.98
2019-03-29T13:49:32.629Z,8.00
2019-03-29T13:52:14.324Z,7.37
2019-03-29T13:54:55.070Z,8.20
2019-03-29T13:57:34.625Z,7.42
2019-03-29T14:00:14.691Z,7.55
2019-03-29T14:02:55.659Z,7.45
2019-03-29T14:05:35.807Z,7.00
2019-03-29T14:08:16.066Z,6.97
2019-03-29T14:10:56.078Z,7.50
2019-03-29T14:13:36.286Z,7.00
2019-03-29T14:16:16.391Z,5.92
2019-03-29T14:18:56.466Z,5.95
2019-03-29T14:21:36.226Z,5.40
2019-03-29T14:24:16.154Z,5.83
2019-03-29T14:26:56.253Z,5.50
2019-03-29T14:29:36.605Z,5.33
2019-03-29T14:32:16.694Z,5.50
2019-03-29T14:34:56.939Z,5.75
2019-03-29T14:37:27.755Z,5.03
2019-03-29T14:40:15.067Z,5.12
2019-03-29T14:42:55.985Z,5.20
2019-03-29T14:45:36.318Z,5.50
2019-03-29T14:48:17.486Z,4.80
2019-03-29T14:50:58.737Z,4.65
2019-03-29T14:53:38.476Z,4.45
2019-03-29T14:56:18.496Z,4.47
2019-03-29T14:58:58.858Z,4.35
2019-03-29T15:01:40.877Z,4.03
2019-03-29T15:04:09.085Z,4.58
2019-03-29T15:06:56.538Z,4.50
2019-03-29T15:09:36.209Z,4.83
2019-03-29T15:12:16.357Z,5.28
2019-03-29T15:15:05.865Z,4.83
2019-03-29T15:17:38.655Z,4.42
2019-03-29T15:20:18.799Z,4.47
2019-03-29T15:22:58.690Z,4.62
2019-03-29T15:25:40.646Z,4.80
2019-03-29T15:28:20.726Z,4.90
2019-03-29T15:31:00.745Z,4.80
2019-03-29T15:33:40.663Z,5.00
2019-03-29T15:36:20.931Z,5.10
2019-03-29T15:39:00.763Z,5.65
2019-03-29T15:41:40.780Z,5.30
2019-03-29T15:44:11.530Z,5.70
2019-03-29T15:46:58.862Z,5.65
2019-03-29T15:49:55.729Z,5.63
2019-03-29T15:52:16.129Z,6.10
2019-03-29T15:55:04.071Z,5.43
2019-03-29T15:57:51.415Z,5.77
2019-03-29T16:00:31.466Z,6.07
2019-03-29T16:03:11.814Z,7.00
2019-03-29T16:05:52.029Z,6.43
2019-03-29T16:08:32.194Z,6.70
2019-03-29T16:11:17.089Z,7.03
2019-03-29T16:13:55.086Z,6.43
2019-03-29T16:16:36.176Z,7.43
2019-03-29T16:19:16.693Z,7.70
2019-03-29T16:21:56.471Z,7.17
2019-03-29T16:24:36.450Z,7.73
2019-03-29T16:27:16.534Z,7.43
2019-03-29T16:29:56.637Z,7.60
2019-03-29T16:32:36.889Z,7.67
2019-03-29T16:35:17.010Z,7.50
2019-03-29T16:37:57.821Z,8.03
2019-03-29T16:40:38.238Z,7.13
2019-03-29T16:43:18.519Z,7.33
2019-03-29T16:45:58.644Z,8.03
2019-03-29T16:48:38.687Z,6.87
2019-03-29T16:51:18.797Z,7.30
2019-03-29T16:54:00.548Z,7.50
2019-03-29T16:56:40.278Z,6.63
2019-03-29T16:59:10.599Z,6.30
2019-03-29T17:01:58.289Z,6.27
2019-03-29T17:04:37.913Z,6.40
2019-03-29T17:07:18.054Z,7.17
2019-03-29T17:09:58.290Z,6.17
2019-03-29T17:12:38.022Z,5.80
2019-03-29T17:15:18.062Z,5.77
2019-03-29T17:18:00.805Z,5.50
2019-03-29T17:20:40.529Z,5.67
2019-03-29T17:23:20.994Z,5.53
2019-03-29T17:26:00.638Z,6.13
2019-03-29T17:28:28.833Z,6.00
2019-03-29T17:31:16.449Z,5.43
2019-03-29T17:33:58.673Z,5.40
2019-03-29T17:36:38.925Z,5.00
2019-03-29T17:39:21.993Z,5.10
2019-03-29T17:42:01.147Z,5.17
2019-03-29T17:44:41.300Z,5.33
2019-03-29T17:47:21.336Z,5.63
2019-03-29T17:50:01.902Z,5.17
2019-03-29T17:52:30.148Z,5.30
2019-03-29T17:55:19.938Z,4.93
2019-03-29T17:58:07.248Z,5.33
2019-03-29T18:00:47.168Z,8.47
2019-03-29T18:03:27.363Z,7.27
2019-03-29T18:06:07.539Z,7.60
2019-03-29T18:08:47.472Z,6.47
2019-03-29T18:11:27.453Z,8.90
2019-03-29T18:14:10.290Z,8.77
2019-03-29T18:16:51.647Z,8.00
2019-03-29T18:19:33.579Z,7.77
2019-03-29T18:25:12.169Z,6.13
2019-03-29T18:27:52.242Z,6.07
2019-03-29T18:30:32.582Z,6.10
2019-03-29T18:33:13.484Z,5.73
2019-03-29T18:35:53.682Z,6.03
2019-03-29T18:38:33.782Z,5.67
2019-03-29T18:41:14.058Z,6.50
2019-03-29T18:43:53.740Z,6.17
2019-03-29T18:46:44.031Z,6.37
2019-03-29T18:49:15.721Z,6.80
2019-03-29T18:51:56.058Z,6.80
2019-03-29T18:54:36.088Z,8.23
2019-03-29T18:57:16.485Z,15.00
2019-03-29T18:59:56.745Z,14.87
2019-03-29T19:02:36.881Z,13.57
2019-03-29T19:05:17.182Z,13.13
2019-03-29T19:07:57.524Z,13.13
2019-03-29T19:10:42.638Z,11.47
2019-03-29T19:13:22.753Z,9.57
2019-03-29T19:16:04.506Z,7.70
2019-03-29T19:18:45.999Z,7.00
2019-03-29T19:21:26.998Z,7.37
2019-03-29T19:24:08.983Z,7.07
2019-03-29T19:26:52.010Z,5.90
2019-03-29T19:29:33.893Z,5.77
2019-03-29T19:32:14.912Z,6.13
2019-03-29T19:34:55.334Z,5.93
2019-03-29T19:37:37.770Z,6.03
2019-03-29T19:40:17.521Z,5.67
2019-03-29T19:42:57.706Z,4.93
2019-03-29T19:45:37.877Z,4.90
2019-03-29T19:48:18.270Z,5.30
2019-03-29T19:51:10.413Z,6.57
2019-03-29T19:53:50.719Z,6.43
2019-03-29T19:56:31.024Z,6.63
2019-03-29T19:59:11.064Z,6.40
2019-03-29T20:01:52.746Z,6.17
2019-03-29T20:04:33.425Z,6.60
2019-03-29T20:07:13.589Z,7.47
2019-03-29T20:12:54.787Z,6.83
2019-03-29T20:15:34.646Z,5.93
2019-03-29T20:18:14.561Z,5.97
2019-03-29T20:20:54.766Z,5.37
2019-03-29T20:23:34.910Z,6.00
2019-03-29T20:26:16.766Z,6.03
2019-03-29T20:28:58.748Z,5.43
2019-03-29T20:31:39.088Z,5.80
2019-03-29T20:34:21.398Z,6.43
2019-03-29T20:37:01.299Z,5.70
2019-03-29T20:39:42.172Z,5.43
2019-03-29T20:42:24.930Z,6.33
2019-03-29T20:45:04.461Z,6.00
2019-03-29T20:47:45.147Z,5.73
2019-03-29T20:50:24.791Z,5.87
2019-03-29T20:53:04.799Z,5.90
2019-03-29T20:55:44.866Z,6.03
2019-03-29T20:58:24.970Z,5.67
2019-03-29T21:01:04.917Z,5.40
2019-03-29T21:03:44.885Z,5.90
2019-03-29T21:06:24.951Z,6.40
2019-03-29T21:09:04.829Z,5.50
2019-03-29T21:11:44.978Z,5.83
2019-03-29T21:14:25.000Z,5.80
2019-03-29T21:17:05.309Z,5.87
2019-03-29T21:20:01.739Z,5.07
2019-03-29T21:22:41.515Z,5.83
2019-03-29T21:25:21.638Z,5.47
2019-03-29T21:28:01.702Z,5.37
2019-03-29T21:30:30.045Z,5.57
2019-03-29T21:33:17.359Z,5.43
2019-03-29T21:35:57.540Z,4.93
2019-03-29T21:38:36.145Z,5.70
2019-03-29T21:41:16.524Z,5.97
2019-03-29T21:43:56.538Z,5.40
2019-03-29T21:46:25.772Z,5.30
2019-03-29T21:49:13.546Z,5.43
2019-03-29T21:51:53.794Z,5.53
2019-03-29T21:54:33.746Z,5.27
2019-03-29T21:57:13.933Z,5.27
2019-03-29T21:59:53.916Z,5.57
2019-03-29T22:02:33.834Z,5.80
2019-03-29T22:05:14.126Z,5.33
2019-03-29T22:07:55.323Z,5.50
2019-03-29T22:10:37.706Z,5.67
2019-03-29T22:13:17.486Z,5.13
2019-03-29T22:15:58.863Z,5.47
2019-03-29T22:18:38.626Z,5.57
2019-03-29T22:21:18.851Z,5.20
2019-03-29T22:23:59.159Z,5.67
2019-03-29T22:26:39.385Z,4.93
2019-03-29T22:29:19.499Z,5.17
2019-03-29T22:31:59.865Z,5.50
2019-03-29T22:34:40.955Z,5.20
2019-03-29T22:37:09.177Z,5.10
2019-03-29T22:39:56.742Z,4.97
2019-03-29T22:42:44.033Z,5.10
2019-03-29T22:45:23.708Z,5.10
2019-03-29T22:48:03.829Z,4.47
2019-03-29T22:50:44.183Z,5.27
2019-03-29T22:53:24.231Z,4.80
2019-03-29T22:56:04.458Z,4.83
2019-03-29T22:58:44.646Z,4.73
2019-03-29T23:01:25.909Z,4.33
2019-03-29T23:04:05.830Z,4.80
2019-03-29T23:06:34.349Z,4.60
2019-03-29T23:09:21.625Z,4.63
2019-03-29T23:12:01.321Z,4.80
2019-03-29T23:14:41.326Z,4.93
2019-03-29T23:17:21.181Z,4.57
2019-03-29T23:20:02.310Z,4.77
2019-03-29T23:22:42.700Z,3.77
2019-03-29T23:25:22.953Z,4.33
2019-03-29T23:28:02.670Z,4.93
2019-03-29T23:30:42.972Z,5.20
2019-03-29T23:33:23.062Z,4.40
2019-03-29T23:36:03.054Z,5.03
2019-03-29T23:38:31.505Z,4.63
2019-03-29T23:41:18.815Z,4.60
2019-03-29T23:44:06.124Z,4.80
2019-03-29T23:46:46.240Z,5.00
2019-03-29T23:49:26.518Z,5.43
2019-03-29T23:52:06.639Z,5.43
2019-03-29T23:54:47.280Z,5.37
2019-03-29T23:57:27.617Z,5.03
